[3 wednesdays a month | 20:00lcl-22:00lcl] Düsseldorf Trainee Day

Zu Eventkalender hinzugefügt: 30 Daten

Kai Schuele

1482477
RG Düsseldorf - Event
ACtC-3eVkxBWymRDaiIMHRxyK6Q2L1Alsw6W8PNQ1ly5sFg8oAXQX5hAepgI2D8EAQeUi6LdYvFFsx9mLoEi4ID6KY8HRlH4zE0zK9pQTtwxz9ZPGhO9JSGpEvWgZVOozj8GyCKdDmL7FTssFIOGz95JWCpE=w1280-h720-no


Es ist wieder Mittwoch und da darf der Traineeday in Düsseldorf nicht fehlen!

Heute öffnen wir wieder für euch unserem Flughafen Düsseldorf ab 19:00z zu unserem Traineeday.
Kommt vorbei und helft unseren angehenden Lotsen mit eurem Flug ihre Skills zu verbessern und die Fehler Quote zu verringern.
Dabei ist es egal ob ihr VFR den Platz und die Umgebung erkunden möchtet oder IFR den An oder Abflug Genießt.
Also nach dem Feierabend nichts wie rein in den Flieger und auf zum Düsseldorf Traineeday.

Unsere Trainees freuen sich auf eure Flüge heute Abend.

Airport Info:

Scenery:


TAF:
  • TAF: EDDL 171100Z 1712/1818 35010KT 9999 BKN020 BECMG 1717/1720 35004KT TEMPO 1803/1810 4000 BR BKN007 BECMG 1807/1810 29006KT BKN010 BECMG 1810/1812 BKN030
 

Kai Schuele

1482477
RG Düsseldorf - Event
ACtC-3eVkxBWymRDaiIMHRxyK6Q2L1Alsw6W8PNQ1ly5sFg8oAXQX5hAepgI2D8EAQeUi6LdYvFFsx9mLoEi4ID6KY8HRlH4zE0zK9pQTtwxz9ZPGhO9JSGpEvWgZVOozj8GyCKdDmL7FTssFIOGz95JWCpE=w1280-h720-no

Heute ist wieder Trainee Day an NRW´s größtem Airport

Ab 18:00z (20:00lcl) übernehmen heute wieder unsere Trainees das Kommando am Ausbildungsflughafen in Düsseldorf um ihrem Ziel ein Stück näher zu kommen. Kommt vorbei und genießt bei bestem VFR Wetter die Sicht auf unsere Landeshauptstadt oder nutzt Düsseldorf (EDDL) als Start, Ziel oder Zwischenstopp auf eurem IFR Flug!
Unsere Trainees und Mentoren freuen sich über euren Flug von oder nach Düsseldorf.
Unsere Geheimtipps heute ist wie immer der Onlinetag in München aber wie jeden Mittwoch ist die Auswahl an Onlinetagen sehr Groß.

Besonders zu erwähnen ist heute das unser Daniel gleich seine Prüfer überzeugen will und sein CPT auf dem EDDL_APP ablegt, also kommt vorbei und helft ihm!

Also seit dabei ab 19:00z (20:00lcl) und bringt unsere Trainees heute richtig ins Schwitzen!

Airport Info:

Scenery:


TAF:
  • EDDL 071100Z 0712/0818 28013KT 9999 BKN020 TEMPO 0712/0718 28015G25KT 4500 SHRAGS BKN012CB PROB40 TEMPO 0712/0714 BKN008 PROB30 TEMPO 0713/0716 29020G30KT TSGS BECMG 0717/0720 26007KT BECMG 0812/0815 20009KT
 
Zuletzt bearbeitet:
Oben